createdAt,value
2023-01-30T00:02:05.638Z,95.85
2023-01-30T00:04:34.127Z,95.91
2023-01-30T00:07:02.629Z,95.75
2023-01-30T00:09:30.927Z,95.91
2023-01-30T00:11:59.300Z,95.95
2023-01-30T00:14:27.715Z,96.11
2023-01-30T00:16:55.998Z,96.49
2023-01-30T00:19:24.259Z,96.87
2023-01-30T00:21:52.602Z,97.07
2023-01-30T00:24:20.983Z,97.25
2023-01-30T00:26:49.377Z,97.46
2023-01-30T00:29:17.803Z,97.62
2023-01-30T00:31:46.310Z,97.75
2023-01-30T00:34:14.636Z,97.82
2023-01-30T00:36:43.008Z,98.04
2023-01-30T00:39:11.323Z,98.28
2023-01-30T00:41:58.229Z,98.41
2023-01-30T00:44:45.387Z,98.50
2023-01-30T00:47:13.710Z,98.64
2023-01-30T00:49:42.542Z,98.90
2023-01-30T00:52:10.831Z,99.20
2023-01-30T00:54:39.203Z,99.44
2023-01-30T00:57:07.572Z,99.66
2023-01-30T00:59:35.882Z,99.81
2023-01-30T01:02:04.317Z,99.94
2023-01-30T01:04:43.422Z,99.98
2023-01-30T01:07:14.477Z,99.94
2023-01-30T01:09:42.983Z,100.00
2023-01-30T01:12:11.367Z,100.00
2023-01-30T01:14:39.842Z,100.00
2023-01-30T01:17:08.315Z,100.00
2023-01-30T01:19:36.574Z,100.00
2023-01-30T01:22:04.835Z,100.00
2023-01-30T01:24:34.656Z,100.00
2023-01-30T01:27:02.966Z,100.00
2023-01-30T01:29:31.241Z,100.00
2023-01-30T01:31:59.702Z,100.00
2023-01-30T01:34:28.128Z,100.00
2023-01-30T01:36:56.458Z,100.00
2023-01-30T01:39:24.776Z,100.00
2023-01-30T01:41:53.022Z,100.00
2023-01-30T01:44:21.355Z,100.00
2023-01-30T01:46:57.978Z,100.00
2023-01-30T01:49:31.871Z,100.00
2023-01-30T01:52:00.329Z,100.00
2023-01-30T01:54:39.175Z,100.00
2023-01-30T01:57:14.119Z,100.00
2023-01-30T01:59:50.791Z,100.00
2023-01-30T02:02:20.165Z,100.00
2023-01-30T02:05:02.653Z,100.00
2023-01-30T02:07:45.318Z,100.00
2023-01-30T02:10:36.360Z,100.00
2023-01-30T02:13:04.740Z,100.00
2023-01-30T02:15:33.778Z,100.00
2023-01-30T02:18:03.257Z,100.00
2023-01-30T02:20:42.034Z,100.00
2023-01-30T02:23:24.540Z,100.00
2023-01-30T02:26:30.546Z,100.00
2023-01-30T02:29:37.462Z,100.00
2023-01-30T02:32:24.802Z,100.00
2023-01-30T02:35:11.276Z,100.00
2023-01-30T02:38:07.292Z,100.00
2023-01-30T02:40:47.907Z,100.00
2023-01-30T02:43:36.796Z,100.00
2023-01-30T02:46:16.142Z,100.00
2023-01-30T02:48:54.731Z,100.00
2023-01-30T02:51:36.464Z,100.00
2023-01-30T02:54:10.750Z,100.00
2023-01-30T02:56:50.011Z,100.00
2023-01-30T02:59:47.156Z,100.00
2023-01-30T03:03:07.087Z,100.00
2023-01-30T03:05:44.668Z,100.00
2023-01-30T03:08:25.005Z,100.00
2023-01-30T03:11:24.583Z,100.00
2023-01-30T03:14:03.163Z,100.00
2023-01-30T03:16:39.851Z,100.00
2023-01-30T03:19:13.475Z,100.00
2023-01-30T03:21:44.611Z,100.00
2023-01-30T03:24:14.902Z,100.00
2023-01-30T03:26:58.740Z,100.00
2023-01-30T03:29:27.420Z,100.00
2023-01-30T03:31:56.555Z,100.00
2023-01-30T03:34:25.061Z,100.00
2023-01-30T03:36:53.609Z,100.00
2023-01-30T03:39:25.138Z,100.00
2023-01-30T03:41:54.645Z,100.00
2023-01-30T03:44:23.297Z,100.00
2023-01-30T03:46:52.072Z,100.00
2023-01-30T03:49:21.637Z,100.00
2023-01-30T03:51:50.091Z,100.00
2023-01-30T03:54:18.517Z,100.00
2023-01-30T03:56:46.893Z,100.00
2023-01-30T03:59:15.280Z,100.00
2023-01-30T04:01:50.268Z,100.00
2023-01-30T04:04:18.821Z,100.00
2023-01-30T04:06:47.214Z,100.00
2023-01-30T04:09:15.676Z,100.00
2023-01-30T04:11:49.343Z,100.00
2023-01-30T04:14:17.867Z,100.00
2023-01-30T04:17:05.950Z,100.00
2023-01-30T04:19:37.135Z,100.00
2023-01-30T04:22:05.794Z,100.00
2023-01-30T04:24:34.250Z,100.00
2023-01-30T04:27:02.548Z,100.00
2023-01-30T04:29:33.752Z,100.00
2023-01-30T04:32:03.150Z,100.00
2023-01-30T04:34:35.446Z,100.00
2023-01-30T04:37:03.836Z,100.00
2023-01-30T04:39:32.653Z,100.00
2023-01-30T04:42:01.017Z,100.00
2023-01-30T04:44:30.723Z,100.00
2023-01-30T04:47:07.675Z,100.00
2023-01-30T04:49:36.538Z,100.00
2023-01-30T04:52:05.443Z,100.00
2023-01-30T04:54:33.982Z,100.00
2023-01-30T04:57:03.110Z,100.00
2023-01-30T04:59:31.527Z,100.00
2023-01-30T05:02:00.467Z,100.00
2023-01-30T05:04:28.916Z,100.00
2023-01-30T05:06:57.263Z,100.00
2023-01-30T05:09:25.767Z,100.00
2023-01-30T05:11:54.078Z,100.00
2023-01-30T05:14:22.446Z,100.00
2023-01-30T05:16:51.042Z,100.00
2023-01-30T05:19:19.367Z,100.00
2023-01-30T05:21:47.699Z,100.00
2023-01-30T05:24:15.996Z,100.00
2023-01-30T05:26:44.383Z,100.00
2023-01-30T05:29:12.833Z,100.00
2023-01-30T05:31:41.226Z,100.00
2023-01-30T05:34:12.551Z,100.00
2023-01-30T05:36:41.003Z,100.00
2023-01-30T05:39:09.401Z,100.00
2023-01-30T05:41:37.843Z,100.00
2023-01-30T05:44:06.594Z,100.00
2023-01-30T05:46:35.027Z,100.00
2023-01-30T05:49:04.381Z,100.00
2023-01-30T05:51:33.274Z,100.00
2023-01-30T05:54:01.715Z,100.00
2023-01-30T05:56:33.348Z,100.00
2023-01-30T05:59:03.039Z,100.00
2023-01-30T06:01:31.627Z,100.00
2023-01-30T06:04:00.201Z,100.00
2023-01-30T06:06:28.798Z,100.00
2023-01-30T06:08:57.491Z,100.00
2023-01-30T06:11:26.440Z,100.00
2023-01-30T06:13:54.975Z,100.00
2023-01-30T06:16:23.332Z,100.00
2023-01-30T06:18:51.654Z,100.00
2023-01-30T06:21:20.052Z,100.00
2023-01-30T06:23:48.363Z,100.00
2023-01-30T06:26:16.748Z,100.00
2023-01-30T06:28:45.378Z,100.00
2023-01-30T06:31:13.821Z,100.00
2023-01-30T06:33:44.050Z,100.00
2023-01-30T06:36:12.372Z,100.00
2023-01-30T06:38:40.666Z,100.00
2023-01-30T06:41:09.051Z,100.00
2023-01-30T06:43:37.447Z,100.00
2023-01-30T06:46:05.924Z,100.00
2023-01-30T06:48:34.249Z,100.00
2023-01-30T06:51:02.921Z,100.00
2023-01-30T06:53:32.025Z,100.00
2023-01-30T06:56:01.866Z,100.00
2023-01-30T06:58:30.623Z,100.00
2023-01-30T07:00:58.965Z,100.00
2023-01-30T07:03:27.319Z,100.00
2023-01-30T07:05:55.705Z,100.00
2023-01-30T07:08:24.477Z,100.00
2023-01-30T07:10:53.011Z,100.00
2023-01-30T07:13:21.362Z,100.00
2023-01-30T07:15:49.694Z,100.00
2023-01-30T07:18:18.243Z,99.88
2023-01-30T07:20:48.715Z,99.23
2023-01-30T07:23:18.024Z,98.80
2023-01-30T07:25:46.597Z,98.48
2023-01-30T07:28:15.256Z,98.68
2023-01-30T07:30:44.000Z,97.97
2023-01-30T07:33:12.618Z,96.98
2023-01-30T07:35:41.143Z,95.83
2023-01-30T07:38:09.551Z,95.25
2023-01-30T07:40:38.097Z,93.89
2023-01-30T07:43:10.020Z,94.19
2023-01-30T07:45:41.553Z,93.78
2023-01-30T07:48:12.391Z,92.62
2023-01-30T07:50:41.495Z,93.08
2023-01-30T07:53:13.042Z,92.65
2023-01-30T07:55:42.486Z,92.58
2023-01-30T07:58:14.853Z,91.36
2023-01-30T08:00:44.224Z,90.72
2023-01-30T08:03:17.324Z,90.53
2023-01-30T08:05:50.087Z,91.11
2023-01-30T08:08:18.522Z,91.65
2023-01-30T08:10:49.520Z,91.65
2023-01-30T08:13:18.139Z,91.38
2023-01-30T08:15:46.521Z,91.53
2023-01-30T08:18:15.033Z,91.23
2023-01-30T08:20:43.526Z,89.81
2023-01-30T08:23:12.179Z,88.83
2023-01-30T08:25:40.998Z,87.99
2023-01-30T08:28:09.486Z,87.58
2023-01-30T08:30:38.071Z,86.27
2023-01-30T08:33:06.651Z,86.14
2023-01-30T08:35:38.162Z,85.76
2023-01-30T08:38:09.126Z,85.23
2023-01-30T08:40:38.534Z,84.39
2023-01-30T08:43:10.599Z,83.20
2023-01-30T08:45:39.091Z,84.11
2023-01-30T08:48:08.324Z,84.32
2023-01-30T08:50:39.120Z,83.76
2023-01-30T08:53:10.304Z,83.28
2023-01-30T08:55:38.894Z,83.40
2023-01-30T08:58:07.627Z,82.94
2023-01-30T09:00:44.546Z,83.19
2023-01-30T09:03:17.741Z,82.38
2023-01-30T09:05:46.627Z,82.14
2023-01-30T09:08:15.719Z,81.08
2023-01-30T09:10:44.166Z,80.57
2023-01-30T09:13:12.573Z,77.08
2023-01-30T09:15:45.678Z,76.39
2023-01-30T09:18:14.151Z,77.08
2023-01-30T09:20:47.801Z,77.15
2023-01-30T09:23:16.476Z,76.20
2023-01-30T09:25:46.403Z,76.78
2023-01-30T09:28:14.787Z,77.81
2023-01-30T09:30:43.493Z,78.52
2023-01-30T09:33:12.003Z,78.65
2023-01-30T09:35:40.364Z,78.93
2023-01-30T09:38:08.697Z,78.16
2023-01-30T09:40:41.685Z,78.90
2023-01-30T09:43:28.673Z,77.47
2023-01-30T09:46:19.179Z,76.48
2023-01-30T09:48:50.499Z,76.65
2023-01-30T09:51:28.372Z,75.47
2023-01-30T09:53:56.823Z,74.95
2023-01-30T09:56:25.609Z,74.83
2023-01-30T09:59:03.873Z,75.74
2023-01-30T10:01:48.907Z,75.75
2023-01-30T10:04:59.042Z,74.82
2023-01-30T10:08:01.386Z,73.00
2023-01-30T10:11:09.905Z,72.17
2023-01-30T10:13:44.004Z,73.06
2023-01-30T10:16:24.819Z,72.01
2023-01-30T10:19:13.362Z,71.06
2023-01-30T10:22:22.947Z,71.40
2023-01-30T10:24:57.676Z,71.97
2023-01-30T10:27:30.090Z,73.19
2023-01-30T10:30:06.046Z,73.63
2023-01-30T10:32:46.525Z,74.61
2023-01-30T10:35:26.894Z,74.98
2023-01-30T10:38:04.014Z,75.85
2023-01-30T10:40:57.915Z,76.05
2023-01-30T10:43:36.381Z,76.83
2023-01-30T10:46:13.454Z,77.29
2023-01-30T10:48:47.087Z,77.94
2023-01-30T10:51:25.196Z,77.92
2023-01-30T10:54:01.184Z,78.19
2023-01-30T10:56:46.514Z,78.59
2023-01-30T10:59:48.577Z,78.46
2023-01-30T11:02:25.245Z,78.36
2023-01-30T11:05:01.849Z,78.35
2023-01-30T11:07:32.315Z,78.48
2023-01-30T11:10:01.522Z,78.83
2023-01-30T11:12:30.013Z,78.22
2023-01-30T11:15:01.067Z,78.29
2023-01-30T11:17:48.095Z,77.74
2023-01-30T11:20:22.212Z,78.70
2023-01-30T11:23:04.229Z,79.07
2023-01-30T11:25:59.288Z,79.21
2023-01-30T11:28:42.894Z,78.56
2023-01-30T11:31:35.092Z,78.76
2023-01-30T11:34:17.519Z,78.94
2023-01-30T11:36:47.602Z,78.08
2023-01-30T11:39:17.651Z,78.63
2023-01-30T11:41:58.735Z,79.26
2023-01-30T11:44:35.891Z,78.72
2023-01-30T11:47:10.135Z,79.49
2023-01-30T11:50:01.920Z,80.18
2023-01-30T11:52:43.573Z,80.30
2023-01-30T11:55:17.526Z,80.74
2023-01-30T11:57:51.302Z,80.81
2023-01-30T12:00:23.934Z,80.98
2023-01-30T12:02:54.900Z,81.02
2023-01-30T12:05:33.109Z,80.83
2023-01-30T12:08:24.779Z,80.19
2023-01-30T12:11:02.470Z,80.24
2023-01-30T12:13:39.337Z,80.01
2023-01-30T12:16:26.853Z,80.27
2023-01-30T12:19:15.104Z,80.53
2023-01-30T12:21:56.267Z,79.85
2023-01-30T12:24:24.686Z,80.22
2023-01-30T12:27:10.169Z,80.24
2023-01-30T12:29:43.567Z,80.16
2023-01-30T12:32:17.301Z,80.37
2023-01-30T12:34:46.561Z,80.28
2023-01-30T12:37:36.681Z,80.52
2023-01-30T12:40:20.512Z,81.00
2023-01-30T12:43:18.380Z,81.46
2023-01-30T12:46:05.797Z,82.06
2023-01-30T12:49:10.166Z,82.86
2023-01-30T12:52:21.508Z,83.73
2023-01-30T12:54:59.181Z,84.20
2023-01-30T12:57:47.569Z,84.70
2023-01-30T13:00:41.823Z,85.31
2023-01-30T13:03:42.044Z,86.16
2023-01-30T13:06:16.423Z,86.70
2023-01-30T13:08:53.963Z,87.44
2023-01-30T13:11:40.257Z,87.89
2023-01-30T13:14:24.066Z,88.27
2023-01-30T13:16:57.817Z,88.72
2023-01-30T13:19:45.949Z,89.00
2023-01-30T13:22:22.904Z,89.39
2023-01-30T13:25:06.549Z,89.86
2023-01-30T13:27:39.651Z,90.32
2023-01-30T13:30:14.907Z,90.85
2023-01-30T13:32:50.870Z,91.18
2023-01-30T13:35:34.727Z,91.49
2023-01-30T13:38:05.292Z,91.76
2023-01-30T13:40:43.348Z,91.84
2023-01-30T13:43:19.964Z,92.09
2023-01-30T13:45:50.633Z,92.26
2023-01-30T13:48:43.554Z,92.65
2023-01-30T13:51:31.004Z,92.80
2023-01-30T13:54:40.441Z,92.92
2023-01-30T13:57:25.358Z,93.08
2023-01-30T13:59:59.745Z,93.31
2023-01-30T14:02:28.319Z,93.43
2023-01-30T14:04:58.564Z,93.52
2023-01-30T14:07:45.217Z,93.66
2023-01-30T14:10:20.754Z,93.88
2023-01-30T14:12:52.592Z,94.01
2023-01-30T14:15:26.278Z,94.29
2023-01-30T14:17:57.905Z,94.35
2023-01-30T14:20:40.862Z,94.35
2023-01-30T14:23:31.720Z,94.53
2023-01-30T14:26:00.925Z,94.55
2023-01-30T14:28:29.360Z,94.73
2023-01-30T14:30:59.911Z,94.76
2023-01-30T14:33:32.977Z,94.78
2023-01-30T14:36:01.365Z,94.52
2023-01-30T14:38:34.878Z,94.73
2023-01-30T14:41:03.297Z,94.82
2023-01-30T14:43:46.458Z,94.75
2023-01-30T14:46:17.907Z,94.78
2023-01-30T14:49:00.978Z,94.90
2023-01-30T14:51:36.103Z,94.92
2023-01-30T14:54:11.028Z,94.96
2023-01-30T14:56:54.473Z,95.01
2023-01-30T14:59:25.396Z,95.08
2023-01-30T15:02:01.681Z,95.12
2023-01-30T15:04:36.056Z,95.15
2023-01-30T15:07:11.023Z,95.25
2023-01-30T15:09:44.853Z,95.21
2023-01-30T15:12:25.553Z,95.03
2023-01-30T15:15:02.513Z,95.04
2023-01-30T15:17:36.941Z,95.08
2023-01-30T15:20:32.460Z,95.05
2023-01-30T15:23:40.174Z,95.17
2023-01-30T15:26:18.564Z,95.23
2023-01-30T15:28:53.347Z,95.23
2023-01-30T15:31:23.744Z,95.18
2023-01-30T15:33:56.926Z,95.22
2023-01-30T15:36:29.270Z,95.09
2023-01-30T15:39:25.910Z,95.02
2023-01-30T15:42:05.923Z,94.98
2023-01-30T15:44:37.407Z,95.01
2023-01-30T15:47:52.268Z,94.80
2023-01-30T15:50:21.323Z,94.79
2023-01-30T15:52:53.297Z,94.74
2023-01-30T15:55:29.113Z,94.56
2023-01-30T15:58:03.406Z,94.49
2023-01-30T16:00:39.665Z,94.40
2023-01-30T16:03:13.830Z,94.35
2023-01-30T16:05:50.594Z,94.38
2023-01-30T16:08:23.822Z,94.36
2023-01-30T16:10:52.254Z,94.30
2023-01-30T16:13:23.482Z,94.11
2023-01-30T16:16:01.023Z,93.77
2023-01-30T16:18:47.044Z,93.89
2023-01-30T16:21:28.672Z,93.82
2023-01-30T16:24:06.895Z,93.78
2023-01-30T16:26:36.662Z,93.60
2023-01-30T16:29:07.958Z,93.55
2023-01-30T16:31:41.489Z,93.36
2023-01-30T16:34:31.036Z,93.34
2023-01-30T16:37:05.427Z,93.43
2023-01-30T16:39:36.348Z,93.35
2023-01-30T16:42:28.298Z,93.65
2023-01-30T16:45:41.690Z,93.68
2023-01-30T16:48:19.820Z,93.65
2023-01-30T16:51:20.144Z,93.85
2023-01-30T16:54:02.735Z,93.96
2023-01-30T16:56:34.531Z,93.99
2023-01-30T16:59:03.582Z,94.13
2023-01-30T17:01:38.469Z,94.58
2023-01-30T17:04:16.316Z,95.08
2023-01-30T17:06:53.271Z,95.71
2023-01-30T17:09:46.267Z,96.22
2023-01-30T17:12:26.879Z,96.68
2023-01-30T17:15:11.922Z,96.99
2023-01-30T17:17:41.055Z,97.48
2023-01-30T17:20:14.145Z,97.74
2023-01-30T17:22:46.121Z,97.74
2023-01-30T17:25:22.163Z,97.81
2023-01-30T17:27:50.726Z,97.92
2023-01-30T17:30:19.932Z,97.87
2023-01-30T17:32:50.756Z,97.83
2023-01-30T17:35:19.411Z,97.81
2023-01-30T17:37:59.688Z,97.71
2023-01-30T17:40:36.643Z,97.60
2023-01-30T17:43:05.562Z,97.37
2023-01-30T17:45:36.453Z,97.43
2023-01-30T17:48:05.594Z,97.27
2023-01-30T17:50:34.298Z,97.37
2023-01-30T17:53:03.248Z,97.25
2023-01-30T17:55:34.406Z,97.35
2023-01-30T17:58:03.050Z,97.26
2023-01-30T18:00:31.492Z,97.34
2023-01-30T18:03:00.172Z,97.24
2023-01-30T18:05:28.706Z,97.32
2023-01-30T18:07:57.206Z,97.25
2023-01-30T18:10:26.057Z,96.95
2023-01-30T18:12:54.544Z,97.00
2023-01-30T18:15:23.032Z,96.76
2023-01-30T18:17:55.210Z,96.34
2023-01-30T18:20:23.739Z,96.30
2023-01-30T18:22:52.053Z,96.16
2023-01-30T18:25:20.965Z,96.03
2023-01-30T18:27:50.055Z,95.86
2023-01-30T18:30:19.083Z,95.87
2023-01-30T18:32:53.833Z,95.75
2023-01-30T18:35:23.386Z,95.76
2023-01-30T18:37:51.983Z,95.55
2023-01-30T18:40:21.452Z,95.53
2023-01-30T18:42:50.393Z,95.55
2023-01-30T18:45:19.024Z,95.53
2023-01-30T18:47:47.567Z,95.32
2023-01-30T18:50:20.176Z,95.38
2023-01-30T18:52:50.905Z,95.16
2023-01-30T18:55:21.072Z,95.04
2023-01-30T18:57:49.681Z,95.04
2023-01-30T19:00:21.796Z,94.72
2023-01-30T19:02:52.374Z,94.51
2023-01-30T19:05:20.888Z,94.68
2023-01-30T19:07:49.413Z,94.58
2023-01-30T19:10:18.443Z,94.49
2023-01-30T19:13:06.031Z,94.46
2023-01-30T19:15:36.748Z,94.40
2023-01-30T19:18:07.715Z,94.68
2023-01-30T19:20:39.207Z,94.74
2023-01-30T19:23:07.611Z,94.62
2023-01-30T19:25:36.917Z,94.52
2023-01-30T19:28:06.627Z,94.61
2023-01-30T19:30:38.328Z,94.45
2023-01-30T19:33:06.840Z,94.29
2023-01-30T19:35:35.420Z,94.34
2023-01-30T19:38:04.840Z,94.15
2023-01-30T19:40:33.479Z,94.24
2023-01-30T19:43:10.430Z,94.05
2023-01-30T19:45:43.751Z,94.08
2023-01-30T19:48:13.363Z,94.17
2023-01-30T19:50:42.118Z,93.98
2023-01-30T19:53:10.449Z,93.83
2023-01-30T19:55:38.975Z,93.58
2023-01-30T19:58:07.618Z,93.47
2023-01-30T20:00:36.200Z,93.56
2023-01-30T20:03:04.583Z,93.56
2023-01-30T20:05:33.037Z,93.51
2023-01-30T20:08:01.523Z,93.58
2023-01-30T20:10:29.949Z,93.36
2023-01-30T20:12:58.383Z,93.62
2023-01-30T20:15:26.803Z,93.49
2023-01-30T20:17:55.293Z,93.43
2023-01-30T20:20:23.926Z,93.33
2023-01-30T20:22:52.367Z,93.19
2023-01-30T20:25:20.678Z,93.06
2023-01-30T20:27:49.095Z,92.61
2023-01-30T20:30:20.178Z,92.92
2023-01-30T20:32:48.676Z,92.80
2023-01-30T20:35:17.793Z,92.91
2023-01-30T20:37:46.263Z,92.77
2023-01-30T20:40:17.193Z,92.97
2023-01-30T20:42:45.905Z,93.24
2023-01-30T20:45:14.371Z,93.32
2023-01-30T20:47:42.800Z,93.38
2023-01-30T20:50:13.779Z,93.47
2023-01-30T20:52:43.211Z,93.26
2023-01-30T20:55:11.662Z,93.21
2023-01-30T20:57:42.984Z,93.62
2023-01-30T21:00:15.687Z,93.57
2023-01-30T21:02:48.482Z,93.79
2023-01-30T21:05:19.555Z,93.74
2023-01-30T21:07:48.400Z,93.68
2023-01-30T21:10:17.078Z,93.68
2023-01-30T21:12:45.469Z,93.76
2023-01-30T21:15:13.861Z,93.79
2023-01-30T21:17:42.258Z,93.56
2023-01-30T21:20:11.062Z,93.62
2023-01-30T21:22:39.439Z,93.67
2023-01-30T21:25:08.242Z,93.80
2023-01-30T21:27:38.708Z,93.69
2023-01-30T21:30:09.084Z,93.83
2023-01-30T21:32:37.901Z,93.85
2023-01-30T21:35:06.596Z,93.83
2023-01-30T21:37:54.361Z,94.04
2023-01-30T21:40:41.294Z,94.20
2023-01-30T21:43:15.614Z,94.96
2023-01-30T21:45:44.760Z,95.66
2023-01-30T21:48:13.267Z,96.34
2023-01-30T21:50:45.662Z,97.73
2023-01-30T21:53:20.207Z,98.28
2023-01-30T21:55:58.589Z,99.00
2023-01-30T21:58:31.368Z,99.78
2023-01-30T22:01:06.803Z,99.97
2023-01-30T22:03:36.398Z,100.00
2023-01-30T22:06:08.549Z,100.00
2023-01-30T22:08:39.906Z,100.00
2023-01-30T22:11:08.379Z,100.00
2023-01-30T22:13:38.265Z,100.00
2023-01-30T22:16:13.449Z,100.00
2023-01-30T22:18:44.324Z,100.00
2023-01-30T22:21:15.076Z,100.00
2023-01-30T22:23:45.582Z,100.00
2023-01-30T22:26:16.393Z,100.00
2023-01-30T22:28:45.287Z,100.00
2023-01-30T22:31:17.542Z,100.00
2023-01-30T22:33:49.658Z,100.00
2023-01-30T22:36:18.522Z,100.00
2023-01-30T22:38:49.444Z,100.00
2023-01-30T22:41:20.738Z,100.00
2023-01-30T22:43:55.641Z,100.00
2023-01-30T22:46:31.548Z,100.00
2023-01-30T22:49:02.047Z,100.00
2023-01-30T22:51:35.065Z,100.00
2023-01-30T22:54:07.145Z,100.00
2023-01-30T22:56:40.676Z,100.00
2023-01-30T22:59:10.666Z,100.00
2023-01-30T23:01:42.187Z,100.00
2023-01-30T23:04:11.928Z,100.00
2023-01-30T23:06:41.235Z,100.00
2023-01-30T23:09:27.017Z,100.00
2023-01-30T23:12:16.544Z,100.00
2023-01-30T23:14:45.183Z,100.00
2023-01-30T23:17:32.252Z,100.00
2023-01-30T23:20:00.678Z,100.00
2023-01-30T23:22:29.196Z,100.00
2023-01-30T23:24:57.525Z,100.00
2023-01-30T23:27:25.901Z,100.00
2023-01-30T23:29:54.339Z,100.00
2023-01-30T23:32:23.831Z,100.00
2023-01-30T23:34:52.215Z,100.00
2023-01-30T23:37:40.593Z,100.00
2023-01-30T23:40:09.646Z,100.00
2023-01-30T23:42:38.137Z,100.00
2023-01-30T23:45:07.040Z,100.00
2023-01-30T23:47:35.392Z,100.00
2023-01-30T23:50:04.060Z,100.00
2023-01-30T23:52:32.585Z,100.00
2023-01-30T23:55:00.841Z,100.00
2023-01-30T23:57:29.346Z,100.00
2023-01-30T23:59:57.677Z,100.00
